sensor_id;sensor_type;location;lat;lon;timestamp;P1;durP1;ratioP1;P2;durP2;ratioP2
59458;SDS011;45269;43.568;22.244;2023-08-24T00:01:06;19.00;;;17.23;;
59458;SDS011;45269;43.568;22.244;2023-08-24T00:03:32;22.05;;;19.10;;
59458;SDS011;45269;43.568;22.244;2023-08-24T00:05:58;20.42;;;18.63;;
59458;SDS011;45269;43.568;22.244;2023-08-24T00:08:23;20.92;;;19.15;;
59458;SDS011;45269;43.568;22.244;2023-08-24T00:10:48;24.38;;;19.50;;
59458;SDS011;45269;43.568;22.244;2023-08-24T00:13:14;20.98;;;19.08;;
59458;SDS011;45269;43.568;22.244;2023-08-24T00:15:40;19.92;;;18.17;;
59458;SDS011;45269;43.568;22.244;2023-08-24T00:18:06;19.45;;;17.77;;
59458;SDS011;45269;43.568;22.244;2023-08-24T00:20:32;19.38;;;17.65;;
59458;SDS011;45269;43.568;22.244;2023-08-24T00:23:00;20.27;;;18.27;;
59458;SDS011;45269;43.568;22.244;2023-08-24T00:25:25;20.30;;;18.70;;
59458;SDS011;45269;43.568;22.244;2023-08-24T00:27:54;20.52;;;17.90;;
59458;SDS011;45269;43.568;22.244;2023-08-24T00:30:19;19.23;;;17.67;;
59458;SDS011;45269;43.568;22.244;2023-08-24T00:32:45;20.70;;;18.85;;
59458;SDS011;45269;43.568;22.244;2023-08-24T00:35:10;19.73;;;17.75;;
59458;SDS011;45269;43.568;22.244;2023-08-24T00:37:36;22.75;;;20.33;;
59458;SDS011;45269;43.568;22.244;2023-08-24T00:40:02;21.80;;;19.77;;
59458;SDS011;45269;43.568;22.244;2023-08-24T00:42:29;21.25;;;19.17;;
59458;SDS011;45269;43.568;22.244;2023-08-24T00:44:54;21.08;;;19.27;;
59458;SDS011;45269;43.568;22.244;2023-08-24T00:47:20;19.90;;;18.17;;
59458;SDS011;45269;43.568;22.244;2023-08-24T00:49:46;21.63;;;19.65;;
59458;SDS011;45269;43.568;22.244;2023-08-24T00:52:11;23.25;;;21.17;;
59458;SDS011;45269;43.568;22.244;2023-08-24T00:54:37;22.85;;;20.88;;
59458;SDS011;45269;43.568;22.244;2023-08-24T00:57:04;22.25;;;20.35;;
59458;SDS011;45269;43.568;22.244;2023-08-24T00:59:30;23.05;;;20.77;;
59458;SDS011;45269;43.568;22.244;2023-08-24T01:01:55;22.02;;;19.95;;
59458;SDS011;45269;43.568;22.244;2023-08-24T01:04:22;22.50;;;20.52;;
59458;SDS011;45269;43.568;22.244;2023-08-24T01:06:47;22.95;;;21.17;;
59458;SDS011;45269;43.568;22.244;2023-08-24T01:09:13;23.02;;;21.00;;
59458;SDS011;45269;43.568;22.244;2023-08-24T01:16:47;24.10;;;22.13;;
59458;SDS011;45269;43.568;22.244;2023-08-24T01:21:58;22.13;;;20.13;;
59458;SDS011;45269;43.568;22.244;2023-08-24T01:24:40;22.93;;;21.03;;
59458;SDS011;45269;43.568;22.244;2023-08-24T01:27:05;22.60;;;20.30;;
59458;SDS011;45269;43.568;22.244;2023-08-24T01:29:31;20.70;;;18.67;;
59458;SDS011;45269;43.568;22.244;2023-08-24T01:31:57;21.83;;;19.55;;
59458;SDS011;45269;43.568;22.244;2023-08-24T01:34:22;20.77;;;18.85;;
59458;SDS011;45269;43.568;22.244;2023-08-24T01:36:47;21.77;;;19.80;;
59458;SDS011;45269;43.568;22.244;2023-08-24T01:39:29;20.15;;;18.33;;
59458;SDS011;45269;43.568;22.244;2023-08-24T01:41:55;20.33;;;18.73;;
59458;SDS011;45269;43.568;22.244;2023-08-24T01:44:24;21.90;;;19.70;;
59458;SDS011;45269;43.568;22.244;2023-08-24T01:46:51;20.77;;;18.67;;
59458;SDS011;45269;43.568;22.244;2023-08-24T01:49:17;21.40;;;19.35;;
59458;SDS011;45269;43.568;22.244;2023-08-24T01:51:43;21.48;;;19.60;;
59458;SDS011;45269;43.568;22.244;2023-08-24T01:54:09;23.00;;;20.88;;
59458;SDS011;45269;43.568;22.244;2023-08-24T01:56:34;22.13;;;19.77;;
59458;SDS011;45269;43.568;22.244;2023-08-24T01:59:00;21.40;;;19.20;;
59458;SDS011;45269;43.568;22.244;2023-08-24T02:01:25;21.73;;;19.73;;
59458;SDS011;45269;43.568;22.244;2023-08-24T02:03:51;21.60;;;19.50;;
59458;SDS011;45269;43.568;22.244;2023-08-24T02:06:16;22.73;;;20.77;;
59458;SDS011;45269;43.568;22.244;2023-08-24T02:08:41;21.20;;;19.48;;
59458;SDS011;45269;43.568;22.244;2023-08-24T02:11:08;22.67;;;20.52;;
59458;SDS011;45269;43.568;22.244;2023-08-24T02:13:33;21.75;;;19.77;;
59458;SDS011;45269;43.568;22.244;2023-08-24T02:16:05;21.63;;;19.70;;
59458;SDS011;45269;43.568;22.244;2023-08-24T02:18:31;21.70;;;19.73;;
59458;SDS011;45269;43.568;22.244;2023-08-24T02:20:56;21.98;;;19.95;;
59458;SDS011;45269;43.568;22.244;2023-08-24T02:23:22;20.67;;;18.52;;
59458;SDS011;45269;43.568;22.244;2023-08-24T02:25:47;21.85;;;19.77;;
59458;SDS011;45269;43.568;22.244;2023-08-24T02:28:12;21.30;;;19.40;;
59458;SDS011;45269;43.568;22.244;2023-08-24T02:30:38;21.30;;;19.40;;
59458;SDS011;45269;43.568;22.244;2023-08-24T02:33:04;21.25;;;19.15;;
59458;SDS011;45269;43.568;22.244;2023-08-24T02:35:29;21.65;;;19.60;;
59458;SDS011;45269;43.568;22.244;2023-08-24T02:37:54;22.50;;;20.38;;
59458;SDS011;45269;43.568;22.244;2023-08-24T02:40:22;23.73;;;21.30;;
59458;SDS011;45269;43.568;22.244;2023-08-24T02:42:47;22.00;;;20.00;;
59458;SDS011;45269;43.568;22.244;2023-08-24T02:45:12;22.35;;;20.25;;
59458;SDS011;45269;43.568;22.244;2023-08-24T02:47:38;23.88;;;21.77;;
59458;SDS011;45269;43.568;22.244;2023-08-24T02:50:04;23.13;;;21.17;;
59458;SDS011;45269;43.568;22.244;2023-08-24T02:52:31;24.42;;;21.88;;
59458;SDS011;45269;43.568;22.244;2023-08-24T02:54:56;22.80;;;20.80;;
59458;SDS011;45269;43.568;22.244;2023-08-24T02:57:22;23.15;;;20.92;;
59458;SDS011;45269;43.568;22.244;2023-08-24T02:59:47;23.77;;;21.77;;
59458;SDS011;45269;43.568;22.244;2023-08-24T03:02:12;24.70;;;22.55;;
59458;SDS011;45269;43.568;22.244;2023-08-24T03:04:38;24.80;;;22.50;;
59458;SDS011;45269;43.568;22.244;2023-08-24T03:07:03;24.15;;;21.88;;
59458;SDS011;45269;43.568;22.244;2023-08-24T03:09:29;25.17;;;22.80;;
59458;SDS011;45269;43.568;22.244;2023-08-24T03:11:54;26.20;;;23.63;;
59458;SDS011;45269;43.568;22.244;2023-08-24T03:14:19;27.13;;;24.60;;
59458;SDS011;45269;43.568;22.244;2023-08-24T03:16:45;26.70;;;23.98;;
59458;SDS011;45269;43.568;22.244;2023-08-24T03:19:10;25.70;;;23.48;;
59458;SDS011;45269;43.568;22.244;2023-08-24T03:21:37;26.48;;;23.83;;
59458;SDS011;45269;43.568;22.244;2023-08-24T03:24:02;27.27;;;24.52;;
59458;SDS011;45269;43.568;22.244;2023-08-24T03:26:29;28.05;;;25.38;;
59458;SDS011;45269;43.568;22.244;2023-08-24T03:28:55;27.67;;;25.17;;
59458;SDS011;45269;43.568;22.244;2023-08-24T03:31:20;25.70;;;23.30;;
59458;SDS011;45269;43.568;22.244;2023-08-24T03:33:45;27.17;;;24.65;;
59458;SDS011;45269;43.568;22.244;2023-08-24T03:36:11;25.35;;;23.00;;
59458;SDS011;45269;43.568;22.244;2023-08-24T03:38:38;24.65;;;22.30;;
59458;SDS011;45269;43.568;22.244;2023-08-24T03:41:03;23.90;;;21.88;;
59458;SDS011;45269;43.568;22.244;2023-08-24T03:43:32;25.48;;;22.98;;
59458;SDS011;45269;43.568;22.244;2023-08-24T03:46:02;25.20;;;22.80;;
59458;SDS011;45269;43.568;22.244;2023-08-24T03:48:29;25.80;;;23.33;;
59458;SDS011;45269;43.568;22.244;2023-08-24T03:50:54;25.35;;;22.88;;
59458;SDS011;45269;43.568;22.244;2023-08-24T03:53:21;25.80;;;23.50;;
59458;SDS011;45269;43.568;22.244;2023-08-24T03:55:48;25.23;;;22.92;;
59458;SDS011;45269;43.568;22.244;2023-08-24T03:58:14;25.77;;;23.30;;
59458;SDS011;45269;43.568;22.244;2023-08-24T04:00:39;28.80;;;26.00;;
59458;SDS011;45269;43.568;22.244;2023-08-24T04:03:05;26.65;;;23.80;;
59458;SDS011;45269;43.568;22.244;2023-08-24T04:05:31;29.23;;;26.48;;
59458;SDS011;45269;43.568;22.244;2023-08-24T04:07:56;36.92;;;33.55;;
59458;SDS011;45269;43.568;22.244;2023-08-24T04:10:21;42.95;;;39.05;;
59458;SDS011;45269;43.568;22.244;2023-08-24T04:12:47;47.05;;;42.72;;
59458;SDS011;45269;43.568;22.244;2023-08-24T04:15:12;43.80;;;39.70;;
59458;SDS011;45269;43.568;22.244;2023-08-24T04:17:37;37.50;;;34.08;;
59458;SDS011;45269;43.568;22.244;2023-08-24T04:20:03;32.05;;;29.35;;
59458;SDS011;45269;43.568;22.244;2023-08-24T04:22:31;32.35;;;28.50;;
59458;SDS011;45269;43.568;22.244;2023-08-24T04:24:57;27.25;;;24.85;;
59458;SDS011;45269;43.568;22.244;2023-08-24T04:27:22;25.65;;;23.33;;
59458;SDS011;45269;43.568;22.244;2023-08-24T04:29:47;27.13;;;24.77;;
59458;SDS011;45269;43.568;22.244;2023-08-24T04:32:13;24.58;;;22.17;;
59458;SDS011;45269;43.568;22.244;2023-08-24T04:34:39;25.48;;;22.83;;
59458;SDS011;45269;43.568;22.244;2023-08-24T04:37:05;25.15;;;22.83;;
59458;SDS011;45269;43.568;22.244;2023-08-24T04:39:30;24.17;;;22.17;;
59458;SDS011;45269;43.568;22.244;2023-08-24T04:41:56;24.70;;;22.50;;
59458;SDS011;45269;43.568;22.244;2023-08-24T04:44:22;26.10;;;23.85;;
59458;SDS011;45269;43.568;22.244;2023-08-24T04:46:47;25.52;;;23.13;;
59458;SDS011;45269;43.568;22.244;2023-08-24T04:49:12;26.85;;;24.42;;
59458;SDS011;45269;43.568;22.244;2023-08-24T04:51:38;26.25;;;24.05;;
59458;SDS011;45269;43.568;22.244;2023-08-24T04:54:03;25.35;;;22.95;;
59458;SDS011;45269;43.568;22.244;2023-08-24T04:56:29;28.90;;;26.20;;
59458;SDS011;45269;43.568;22.244;2023-08-24T04:58:54;28.58;;;26.17;;
59458;SDS011;45269;43.568;22.244;2023-08-24T05:01:21;27.35;;;24.85;;
59458;SDS011;45269;43.568;22.244;2023-08-24T05:03:47;26.77;;;24.33;;
59458;SDS011;45269;43.568;22.244;2023-08-24T05:06:12;29.15;;;26.73;;
59458;SDS011;45269;43.568;22.244;2023-08-24T05:08:37;28.73;;;26.33;;
59458;SDS011;45269;43.568;22.244;2023-08-24T05:11:10;30.65;;;27.77;;
59458;SDS011;45269;43.568;22.244;2023-08-24T05:13:35;28.88;;;25.73;;
59458;SDS011;45269;43.568;22.244;2023-08-24T05:16:00;29.17;;;26.67;;
59458;SDS011;45269;43.568;22.244;2023-08-24T05:18:26;28.00;;;25.55;;
59458;SDS011;45269;43.568;22.244;2023-08-24T05:20:51;28.55;;;26.05;;
59458;SDS011;45269;43.568;22.244;2023-08-24T05:23:16;28.75;;;26.20;;
59458;SDS011;45269;43.568;22.244;2023-08-24T05:25:42;27.33;;;24.73;;
59458;SDS011;45269;43.568;22.244;2023-08-24T05:28:08;26.20;;;23.73;;
59458;SDS011;45269;43.568;22.244;2023-08-24T05:30:33;26.75;;;24.33;;
59458;SDS011;45269;43.568;22.244;2023-08-24T05:32:58;27.00;;;24.70;;
59458;SDS011;45269;43.568;22.244;2023-08-24T05:35:24;25.75;;;23.38;;
59458;SDS011;45269;43.568;22.244;2023-08-24T05:37:51;27.25;;;24.85;;
59458;SDS011;45269;43.568;22.244;2023-08-24T05:40:17;25.95;;;23.75;;
59458;SDS011;45269;43.568;22.244;2023-08-24T05:42:42;26.92;;;24.52;;
59458;SDS011;45269;43.568;22.244;2023-08-24T05:45:08;26.05;;;23.65;;
59458;SDS011;45269;43.568;22.244;2023-08-24T05:47:33;25.33;;;23.17;;
59458;SDS011;45269;43.568;22.244;2023-08-24T05:49:58;25.52;;;23.27;;
59458;SDS011;45269;43.568;22.244;2023-08-24T05:52:24;24.40;;;22.50;;
59458;SDS011;45269;43.568;22.244;2023-08-24T05:54:49;25.48;;;23.08;;
59458;SDS011;45269;43.568;22.244;2023-08-24T05:57:14;23.10;;;21.00;;
59458;SDS011;45269;43.568;22.244;2023-08-24T05:59:40;23.63;;;21.65;;
59458;SDS011;45269;43.568;22.244;2023-08-24T06:02:05;23.67;;;21.65;;
59458;SDS011;45269;43.568;22.244;2023-08-24T06:04:30;23.85;;;21.85;;
59458;SDS011;45269;43.568;22.244;2023-08-24T06:06:56;22.50;;;20.63;;
59458;SDS011;45269;43.568;22.244;2023-08-24T06:09:21;22.27;;;20.13;;
59458;SDS011;45269;43.568;22.244;2023-08-24T06:11:46;21.85;;;19.80;;
59458;SDS011;45269;43.568;22.244;2023-08-24T06:14:12;21.80;;;18.95;;
59458;SDS011;45269;43.568;22.244;2023-08-24T06:16:37;22.70;;;20.48;;
59458;SDS011;45269;43.568;22.244;2023-08-24T06:19:02;21.20;;;19.35;;
59458;SDS011;45269;43.568;22.244;2023-08-24T06:21:28;20.25;;;18.45;;
59458;SDS011;45269;43.568;22.244;2023-08-24T06:23:54;22.55;;;19.65;;
59458;SDS011;45269;43.568;22.244;2023-08-24T06:26:19;20.05;;;18.30;;
59458;SDS011;45269;43.568;22.244;2023-08-24T06:28:44;18.73;;;17.13;;
59458;SDS011;45269;43.568;22.244;2023-08-24T06:31:10;19.60;;;17.98;;
59458;SDS011;45269;43.568;22.244;2023-08-24T06:33:36;21.05;;;19.05;;
59458;SDS011;45269;43.568;22.244;2023-08-24T06:36:02;22.23;;;17.02;;
59458;SDS011;45269;43.568;22.244;2023-08-24T06:38:30;19.15;;;17.10;;
59458;SDS011;45269;43.568;22.244;2023-08-24T06:40:55;18.35;;;16.75;;
59458;SDS011;45269;43.568;22.244;2023-08-24T06:43:20;18.40;;;16.83;;
59458;SDS011;45269;43.568;22.244;2023-08-24T06:45:46;18.73;;;17.13;;
59458;SDS011;45269;43.568;22.244;2023-08-24T06:48:11;20.13;;;18.13;;
59458;SDS011;45269;43.568;22.244;2023-08-24T06:50:36;18.85;;;16.92;;
59458;SDS011;45269;43.568;22.244;2023-08-24T06:53:02;18.27;;;16.70;;
59458;SDS011;45269;43.568;22.244;2023-08-24T06:55:28;18.83;;;17.23;;
59458;SDS011;45269;43.568;22.244;2023-08-24T06:57:53;18.42;;;16.70;;
59458;SDS011;45269;43.568;22.244;2023-08-24T07:00:19;18.60;;;17.05;;
59458;SDS011;45269;43.568;22.244;2023-08-24T07:02:48;17.15;;;15.73;;
59458;SDS011;45269;43.568;22.244;2023-08-24T07:05:13;23.98;;;21.20;;
59458;SDS011;45269;43.568;22.244;2023-08-24T07:07:39;26.58;;;23.88;;
59458;SDS011;45269;43.568;22.244;2023-08-24T07:10:06;20.25;;;18.45;;
59458;SDS011;45269;43.568;22.244;2023-08-24T07:12:31;17.73;;;16.13;;
59458;SDS011;45269;43.568;22.244;2023-08-24T07:14:57;16.90;;;15.50;;
59458;SDS011;45269;43.568;22.244;2023-08-24T07:17:22;16.70;;;15.20;;
59458;SDS011;45269;43.568;22.244;2023-08-24T07:19:47;17.73;;;16.02;;
59458;SDS011;45269;43.568;22.244;2023-08-24T07:22:13;17.13;;;15.70;;
59458;SDS011;45269;43.568;22.244;2023-08-24T07:24:39;15.25;;;13.73;;
59458;SDS011;45269;43.568;22.244;2023-08-24T07:27:04;17.90;;;15.98;;
59458;SDS011;45269;43.568;22.244;2023-08-24T07:29:29;16.52;;;14.93;;
59458;SDS011;45269;43.568;22.244;2023-08-24T07:31:55;17.10;;;15.60;;
59458;SDS011;45269;43.568;22.244;2023-08-24T07:34:20;16.23;;;14.57;;
59458;SDS011;45269;43.568;22.244;2023-08-24T07:36:47;15.95;;;14.60;;
59458;SDS011;45269;43.568;22.244;2023-08-24T07:39:13;17.05;;;15.55;;
59458;SDS011;45269;43.568;22.244;2023-08-24T07:41:40;18.20;;;16.60;;
59458;SDS011;45269;43.568;22.244;2023-08-24T07:44:05;19.48;;;17.60;;
59458;SDS011;45269;43.568;22.244;2023-08-24T07:46:31;18.88;;;16.90;;
59458;SDS011;45269;43.568;22.244;2023-08-24T07:48:56;19.00;;;16.98;;
59458;SDS011;45269;43.568;22.244;2023-08-24T07:51:21;18.02;;;16.30;;
59458;SDS011;45269;43.568;22.244;2023-08-24T07:53:47;16.95;;;15.38;;
59458;SDS011;45269;43.568;22.244;2023-08-24T07:56:14;16.65;;;15.18;;
59458;SDS011;45269;43.568;22.244;2023-08-24T07:58:39;17.00;;;15.60;;
59458;SDS011;45269;43.568;22.244;2023-08-24T08:01:04;55.88;;;51.42;;
59458;SDS011;45269;43.568;22.244;2023-08-24T08:03:30;41.00;;;37.45;;
59458;SDS011;45269;43.568;22.244;2023-08-24T08:05:56;20.83;;;18.95;;
59458;SDS011;45269;43.568;22.244;2023-08-24T08:08:22;17.15;;;15.57;;
59458;SDS011;45269;43.568;22.244;2023-08-24T08:10:47;17.10;;;15.23;;
59458;SDS011;45269;43.568;22.244;2023-08-24T08:13:12;16.05;;;14.73;;
59458;SDS011;45269;43.568;22.244;2023-08-24T08:15:38;16.75;;;15.35;;
59458;SDS011;45269;43.568;22.244;2023-08-24T08:18:04;15.57;;;14.18;;
59458;SDS011;45269;43.568;22.244;2023-08-24T08:20:30;15.48;;;14.07;;
59458;SDS011;45269;43.568;22.244;2023-08-24T08:22:55;18.20;;;14.38;;
59458;SDS011;45269;43.568;22.244;2023-08-24T08:25:20;15.18;;;13.88;;
59458;SDS011;45269;43.568;22.244;2023-08-24T08:27:47;16.05;;;14.48;;
59458;SDS011;45269;43.568;22.244;2023-08-24T08:30:12;16.00;;;14.77;;
59458;SDS011;45269;43.568;22.244;2023-08-24T08:32:38;16.52;;;14.18;;
59458;SDS011;45269;43.568;22.244;2023-08-24T08:35:03;16.98;;;15.52;;
59458;SDS011;45269;43.568;22.244;2023-08-24T08:37:32;17.67;;;16.23;;
59458;SDS011;45269;43.568;22.244;2023-08-24T08:39:58;17.15;;;15.60;;
59458;SDS011;45269;43.568;22.244;2023-08-24T08:42:23;18.67;;;16.98;;
59458;SDS011;45269;43.568;22.244;2023-08-24T08:44:49;17.42;;;15.88;;
59458;SDS011;45269;43.568;22.244;2023-08-24T08:47:15;17.13;;;15.23;;
59458;SDS011;45269;43.568;22.244;2023-08-24T08:49:42;14.32;;;13.02;;
59458;SDS011;45269;43.568;22.244;2023-08-24T08:52:08;13.18;;;12.18;;
59458;SDS011;45269;43.568;22.244;2023-08-24T08:54:34;14.50;;;13.30;;
59458;SDS011;45269;43.568;22.244;2023-08-24T08:56:59;13.63;;;12.43;;
59458;SDS011;45269;43.568;22.244;2023-08-24T08:59:26;12.90;;;11.65;;
59458;SDS011;45269;43.568;22.244;2023-08-24T09:01:54;15.07;;;13.70;;
59458;SDS011;45269;43.568;22.244;2023-08-24T09:04:20;13.65;;;12.45;;
59458;SDS011;45269;43.568;22.244;2023-08-24T09:06:46;15.20;;;13.77;;
59458;SDS011;45269;43.568;22.244;2023-08-24T09:09:11;14.43;;;13.13;;
59458;SDS011;45269;43.568;22.244;2023-08-24T09:11:37;13.32;;;12.27;;
59458;SDS011;45269;43.568;22.244;2023-08-24T09:14:04;14.60;;;13.35;;
59458;SDS011;45269;43.568;22.244;2023-08-24T09:16:29;12.85;;;11.85;;
59458;SDS011;45269;43.568;22.244;2023-08-24T09:18:55;13.63;;;12.38;;
59458;SDS011;45269;43.568;22.244;2023-08-24T09:21:20;13.00;;;11.98;;
59458;SDS011;45269;43.568;22.244;2023-08-24T09:23:53;13.25;;;12.15;;
59458;SDS011;45269;43.568;22.244;2023-08-24T09:26:28;13.80;;;12.52;;
59458;SDS011;45269;43.568;22.244;2023-08-24T09:28:54;13.13;;;12.00;;
59458;SDS011;45269;43.568;22.244;2023-08-24T09:31:20;13.50;;;12.40;;
59458;SDS011;45269;43.568;22.244;2023-08-24T09:33:46;13.40;;;12.13;;
59458;SDS011;45269;43.568;22.244;2023-08-24T09:36:13;13.45;;;12.35;;
59458;SDS011;45269;43.568;22.244;2023-08-24T09:38:45;13.60;;;12.20;;
59458;SDS011;45269;43.568;22.244;2023-08-24T09:41:10;13.38;;;12.23;;
59458;SDS011;45269;43.568;22.244;2023-08-24T09:43:36;14.68;;;11.93;;
59458;SDS011;45269;43.568;22.244;2023-08-24T09:46:01;14.15;;;12.43;;
59458;SDS011;45269;43.568;22.244;2023-08-24T09:48:28;15.63;;;12.82;;
59458;SDS011;45269;43.568;22.244;2023-08-24T09:50:53;13.02;;;12.02;;
59458;SDS011;45269;43.568;22.244;2023-08-24T09:53:20;14.07;;;12.50;;
59458;SDS011;45269;43.568;22.244;2023-08-24T09:58:24;13.15;;;12.00;;
59458;SDS011;45269;43.568;22.244;2023-08-24T10:00:49;12.48;;;11.27;;
59458;SDS011;45269;43.568;22.244;2023-08-24T10:03:15;12.77;;;11.65;;
59458;SDS011;45269;43.568;22.244;2023-08-24T10:05:44;12.00;;;11.18;;
59458;SDS011;45269;43.568;22.244;2023-08-24T10:08:09;11.88;;;10.88;;
59458;SDS011;45269;43.568;22.244;2023-08-24T10:10:35;12.63;;;11.32;;
59458;SDS011;45269;43.568;22.244;2023-08-24T10:13:05;12.98;;;11.65;;
59458;SDS011;45269;43.568;22.244;2023-08-24T10:15:33;12.70;;;11.70;;
59458;SDS011;45269;43.568;22.244;2023-08-24T10:17:59;12.85;;;11.52;;
59458;SDS011;45269;43.568;22.244;2023-08-24T10:20:25;13.07;;;11.48;;
59458;SDS011;45269;43.568;22.244;2023-08-24T10:22:51;13.73;;;12.40;;
59458;SDS011;45269;43.568;22.244;2023-08-24T10:25:17;12.88;;;11.77;;
59458;SDS011;45269;43.568;22.244;2023-08-24T10:27:45;12.40;;;11.40;;
59458;SDS011;45269;43.568;22.244;2023-08-24T10:30:13;13.88;;;12.05;;
59458;SDS011;45269;43.568;22.244;2023-08-24T10:32:39;13.70;;;12.30;;
59458;SDS011;45269;43.568;22.244;2023-08-24T10:35:05;13.55;;;12.15;;
59458;SDS011;45269;43.568;22.244;2023-08-24T10:37:31;26.45;;;12.15;;
59458;SDS011;45269;43.568;22.244;2023-08-24T10:39:59;33.50;;;16.17;;
59458;SDS011;45269;43.568;22.244;2023-08-24T10:42:24;16.40;;;11.38;;
59458;SDS011;45269;43.568;22.244;2023-08-24T10:44:51;13.75;;;11.38;;
59458;SDS011;45269;43.568;22.244;2023-08-24T10:47:20;14.20;;;12.88;;
59458;SDS011;45269;43.568;22.244;2023-08-24T10:52:23;10.07;;;9.27;;
59458;SDS011;45269;43.568;22.244;2023-08-24T10:54:49;11.25;;;10.15;;
59458;SDS011;45269;43.568;22.244;2023-08-24T11:02:17;16.70;;;13.20;;
59458;SDS011;45269;43.568;22.244;2023-08-24T11:05:04;13.40;;;12.23;;
59458;SDS011;45269;43.568;22.244;2023-08-24T11:07:29;15.48;;;14.18;;
59458;SDS011;45269;43.568;22.244;2023-08-24T11:09:54;17.38;;;15.63;;
59458;SDS011;45269;43.568;22.244;2023-08-24T11:12:20;14.98;;;13.57;;
59458;SDS011;45269;43.568;22.244;2023-08-24T11:14:48;15.40;;;14.10;;
59458;SDS011;45269;43.568;22.244;2023-08-24T11:17:17;16.10;;;14.60;;
59458;SDS011;45269;43.568;22.244;2023-08-24T11:22:08;14.93;;;13.63;;
59458;SDS011;45269;43.568;22.244;2023-08-24T11:24:34;15.00;;;13.80;;
59458;SDS011;45269;43.568;22.244;2023-08-24T11:27:01;16.35;;;14.80;;
59458;SDS011;45269;43.568;22.244;2023-08-24T11:29:27;16.17;;;14.82;;
59458;SDS011;45269;43.568;22.244;2023-08-24T11:31:53;23.58;;;20.17;;
59458;SDS011;45269;43.568;22.244;2023-08-24T11:34:18;18.67;;;16.80;;
59458;SDS011;45269;43.568;22.244;2023-08-24T11:39:14;20.40;;;18.58;;
59458;SDS011;45269;43.568;22.244;2023-08-24T11:41:39;16.70;;;15.13;;
59458;SDS011;45269;43.568;22.244;2023-08-24T11:44:05;17.02;;;15.63;;
59458;SDS011;45269;43.568;22.244;2023-08-24T11:46:31;16.83;;;15.38;;
59458;SDS011;45269;43.568;22.244;2023-08-24T11:48:57;19.02;;;17.40;;
59458;SDS011;45269;43.568;22.244;2023-08-24T11:51:22;17.17;;;15.63;;
59458;SDS011;45269;43.568;22.244;2023-08-24T11:53:48;16.25;;;14.85;;
59458;SDS011;45269;43.568;22.244;2023-08-24T11:56:14;17.75;;;16.25;;
59458;SDS011;45269;43.568;22.244;2023-08-24T11:58:43;17.73;;;16.08;;
59458;SDS011;45269;43.568;22.244;2023-08-24T12:03:34;17.93;;;16.10;;
59458;SDS011;45269;43.568;22.244;2023-08-24T12:06:00;18.50;;;16.77;;
59458;SDS011;45269;43.568;22.244;2023-08-24T12:08:26;18.30;;;16.70;;
59458;SDS011;45269;43.568;22.244;2023-08-24T12:10:51;21.98;;;19.88;;
59458;SDS011;45269;43.568;22.244;2023-08-24T12:13:17;23.60;;;21.27;;
59458;SDS011;45269;43.568;22.244;2023-08-24T12:15:42;21.98;;;19.98;;
59458;SDS011;45269;43.568;22.244;2023-08-24T12:18:12;22.00;;;19.73;;
59458;SDS011;45269;43.568;22.244;2023-08-24T12:20:42;21.35;;;19.65;;
59458;SDS011;45269;43.568;22.244;2023-08-24T12:23:09;20.67;;;18.45;;
59458;SDS011;45269;43.568;22.244;2023-08-24T12:25:37;24.42;;;17.92;;
59458;SDS011;45269;43.568;22.244;2023-08-24T12:30:47;22.95;;;20.98;;
59458;SDS011;45269;43.568;22.244;2023-08-24T12:33:29;22.60;;;20.67;;
59458;SDS011;45269;43.568;22.244;2023-08-24T12:35:54;21.77;;;20.00;;
59458;SDS011;45269;43.568;22.244;2023-08-24T12:38:20;21.20;;;19.40;;
59458;SDS011;45269;43.568;22.244;2023-08-24T12:40:46;20.48;;;18.63;;
59458;SDS011;45269;43.568;22.244;2023-08-24T12:43:11;20.90;;;19.17;;
59458;SDS011;45269;43.568;22.244;2023-08-24T12:45:36;19.55;;;17.85;;
59458;SDS011;45269;43.568;22.244;2023-08-24T12:48:05;20.92;;;18.92;;
59458;SDS011;45269;43.568;22.244;2023-08-24T12:50:32;22.17;;;20.25;;
59458;SDS011;45269;43.568;22.244;2023-08-24T12:52:58;24.63;;;22.00;;
59458;SDS011;45269;43.568;22.244;2023-08-24T12:55:28;27.77;;;24.83;;
59458;SDS011;45269;43.568;22.244;2023-08-24T12:57:53;29.23;;;26.45;;
59458;SDS011;45269;43.568;22.244;2023-08-24T13:00:19;23.15;;;21.08;;
59458;SDS011;45269;43.568;22.244;2023-08-24T13:02:44;21.65;;;19.88;;
59458;SDS011;45269;43.568;22.244;2023-08-24T13:05:09;21.92;;;20.02;;
59458;SDS011;45269;43.568;22.244;2023-08-24T13:07:36;22.25;;;20.45;;
59458;SDS011;45269;43.568;22.244;2023-08-24T13:10:01;21.58;;;19.83;;
59458;SDS011;45269;43.568;22.244;2023-08-24T13:12:27;23.20;;;20.95;;
59458;SDS011;45269;43.568;22.244;2023-08-24T13:14:52;25.50;;;23.10;;
59458;SDS011;45269;43.568;22.244;2023-08-24T13:17:18;23.45;;;21.27;;
59458;SDS011;45269;43.568;22.244;2023-08-24T13:19:43;24.48;;;22.25;;
59458;SDS011;45269;43.568;22.244;2023-08-24T13:22:11;23.58;;;21.58;;
59458;SDS011;45269;43.568;22.244;2023-08-24T13:24:36;20.98;;;19.05;;
59458;SDS011;45269;43.568;22.244;2023-08-24T13:27:01;21.88;;;19.92;;
59458;SDS011;45269;43.568;22.244;2023-08-24T13:29:28;21.92;;;19.95;;
59458;SDS011;45269;43.568;22.244;2023-08-24T13:31:53;22.42;;;20.63;;
59458;SDS011;45269;43.568;22.244;2023-08-24T13:34:18;22.63;;;20.13;;
59458;SDS011;45269;43.568;22.244;2023-08-24T13:36:44;22.88;;;20.88;;
59458;SDS011;45269;43.568;22.244;2023-08-24T13:39:09;22.55;;;20.60;;
59458;SDS011;45269;43.568;22.244;2023-08-24T13:41:36;23.67;;;21.20;;
59458;SDS011;45269;43.568;22.244;2023-08-24T13:44:01;29.88;;;26.98;;
59458;SDS011;45269;43.568;22.244;2023-08-24T13:46:26;26.92;;;24.48;;
59458;SDS011;45269;43.568;22.244;2023-08-24T13:48:52;24.92;;;22.65;;
59458;SDS011;45269;43.568;22.244;2023-08-24T13:51:17;23.88;;;22.02;;
59458;SDS011;45269;43.568;22.244;2023-08-24T13:53:42;23.88;;;21.88;;
59458;SDS011;45269;43.568;22.244;2023-08-24T13:56:08;22.83;;;20.83;;
59458;SDS011;45269;43.568;22.244;2023-08-24T13:58:33;23.55;;;21.55;;
59458;SDS011;45269;43.568;22.244;2023-08-24T14:00:59;22.02;;;19.95;;
59458;SDS011;45269;43.568;22.244;2023-08-24T14:03:24;22.17;;;20.17;;
59458;SDS011;45269;43.568;22.244;2023-08-24T14:05:54;21.88;;;20.05;;
59458;SDS011;45269;43.568;22.244;2023-08-24T14:08:20;22.15;;;20.20;;
59458;SDS011;45269;43.568;22.244;2023-08-24T14:10:45;21.95;;;19.45;;
59458;SDS011;45269;43.568;22.244;2023-08-24T14:13:13;21.33;;;19.20;;
59458;SDS011;45269;43.568;22.244;2023-08-24T14:15:39;19.50;;;17.70;;
59458;SDS011;45269;43.568;22.244;2023-08-24T14:18:04;20.50;;;18.88;;
59458;SDS011;45269;43.568;22.244;2023-08-24T14:20:29;19.52;;;17.92;;
59458;SDS011;45269;43.568;22.244;2023-08-24T14:22:55;19.98;;;18.33;;
59458;SDS011;45269;43.568;22.244;2023-08-24T14:25:20;20.77;;;18.73;;
59458;SDS011;45269;43.568;22.244;2023-08-24T14:27:45;19.65;;;17.75;;
59458;SDS011;45269;43.568;22.244;2023-08-24T14:30:11;19.85;;;18.35;;